createdAt,value
2023-05-21T00:00:10.914Z,13.57
2023-05-21T00:02:59.467Z,11.57
2023-05-21T00:05:45.128Z,13.40
2023-05-21T00:08:29.088Z,13.95
2023-05-21T00:11:13.100Z,11.07
2023-05-21T00:13:58.516Z,7.60
2023-05-21T00:16:42.571Z,7.20
2023-05-21T00:19:27.341Z,9.57
2023-05-21T00:22:11.296Z,5.30
2023-05-21T00:24:55.160Z,5.10
2023-05-21T00:27:39.225Z,5.75
2023-05-21T00:30:24.788Z,8.93
2023-05-21T00:33:10.561Z,8.75
2023-05-21T00:35:54.519Z,9.63
2023-05-21T00:38:38.830Z,13.68
2023-05-21T00:41:25.633Z,9.90
2023-05-21T00:44:09.699Z,12.73
2023-05-21T00:46:55.071Z,13.47
2023-05-21T00:49:39.141Z,11.27
2023-05-21T00:52:23.337Z,9.50
2023-05-21T00:55:08.029Z,11.93
2023-05-21T00:57:52.008Z,12.43
2023-05-21T01:00:37.667Z,6.80
2023-05-21T01:03:24.270Z,9.48
2023-05-21T01:06:10.217Z,16.03
2023-05-21T01:08:56.301Z,12.90
2023-05-21T01:11:42.289Z,13.17
2023-05-21T01:14:26.670Z,12.77
2023-05-21T01:17:11.538Z,6.70
2023-05-21T01:19:57.140Z,6.80
2023-05-21T01:22:44.003Z,5.53
2023-05-21T01:25:29.652Z,7.55
2023-05-21T01:28:14.027Z,5.57
2023-05-21T01:31:02.744Z,5.47
2023-05-21T01:33:51.287Z,4.47
2023-05-21T01:36:42.363Z,5.27
2023-05-21T01:39:31.361Z,5.67
2023-05-21T01:42:19.505Z,7.20
2023-05-21T01:45:07.085Z,6.87
2023-05-21T01:47:52.958Z,8.27
2023-05-21T01:50:38.648Z,8.40
2023-05-21T01:53:22.970Z,10.70
2023-05-21T01:56:07.695Z,10.97
2023-05-21T01:58:53.304Z,10.67
2023-05-21T02:01:37.310Z,11.67
2023-05-21T02:04:21.239Z,8.20
2023-05-21T02:07:05.352Z,7.78
2023-05-21T02:09:49.338Z,9.53
2023-05-21T02:12:34.921Z,8.25
2023-05-21T02:15:20.618Z,9.95
2023-05-21T02:18:04.876Z,9.10
2023-05-21T02:21:08.782Z,6.80
2023-05-21T02:23:52.699Z,6.30
2023-05-21T02:26:37.426Z,8.87
2023-05-21T02:29:21.432Z,5.80
2023-05-21T02:32:07.684Z,7.00
2023-05-21T02:34:51.673Z,5.73
2023-05-21T02:37:35.884Z,6.07
2023-05-21T02:40:19.780Z,5.87
2023-05-21T02:43:04.205Z,5.50
2023-05-21T02:45:51.542Z,5.17
2023-05-21T02:48:37.843Z,8.03
2023-05-21T02:51:22.694Z,6.60
2023-05-21T02:54:07.229Z,6.90
2023-05-21T02:56:51.655Z,12.73
2023-05-21T02:59:35.634Z,7.37
2023-05-21T03:02:19.612Z,6.45
2023-05-21T03:05:05.309Z,7.13
2023-05-21T03:07:51.083Z,7.70
2023-05-21T03:10:35.026Z,6.50
2023-05-21T03:13:19.197Z,7.30
2023-05-21T03:16:03.066Z,6.53
2023-05-21T03:18:49.343Z,6.07
2023-05-21T03:21:34.847Z,6.87
2023-05-21T03:24:19.001Z,5.60
2023-05-21T03:27:03.123Z,6.55
2023-05-21T03:29:46.958Z,6.55
2023-05-21T03:32:33.841Z,7.32
2023-05-21T03:35:18.853Z,5.65
2023-05-21T03:38:04.359Z,6.63
2023-05-21T03:40:48.252Z,7.60
2023-05-21T03:43:32.659Z,6.93
2023-05-21T03:46:16.837Z,7.25
2023-05-21T03:49:03.390Z,6.43
2023-05-21T03:51:49.488Z,6.65
2023-05-21T03:54:36.752Z,7.72
2023-05-21T03:57:24.361Z,7.25
2023-05-21T04:00:10.166Z,5.53
2023-05-21T04:03:00.477Z,5.78
2023-05-21T04:05:44.783Z,7.45
2023-05-21T04:08:29.527Z,5.68
2023-05-21T04:11:14.963Z,5.53
2023-05-21T04:13:58.843Z,6.57
2023-05-21T04:16:44.113Z,5.38
2023-05-21T04:19:28.594Z,6.25
2023-05-21T04:22:12.909Z,6.05
2023-05-21T04:24:56.891Z,5.88
2023-05-21T04:27:50.221Z,7.57
2023-05-21T04:30:35.720Z,5.45
2023-05-21T04:33:20.836Z,4.97
2023-05-21T04:36:05.080Z,5.00
2023-05-21T04:38:49.887Z,6.45
2023-05-21T04:41:34.015Z,6.43
2023-05-21T04:44:19.641Z,5.60
2023-05-21T04:47:04.117Z,7.60
2023-05-21T04:49:48.196Z,5.80
2023-05-21T04:52:32.178Z,5.43
2023-05-21T04:55:19.126Z,7.45
2023-05-21T04:58:04.525Z,6.10
2023-05-21T05:00:51.828Z,5.93
2023-05-21T05:03:36.628Z,6.85
2023-05-21T05:06:21.562Z,5.28
2023-05-21T05:09:05.858Z,6.43
2023-05-21T05:11:49.780Z,5.28
2023-05-21T05:14:33.934Z,5.50
2023-05-21T05:17:19.272Z,5.30
2023-05-21T05:20:03.499Z,5.18
2023-05-21T05:22:48.738Z,5.00
2023-05-21T05:25:33.212Z,4.43
2023-05-21T05:28:17.302Z,5.13
2023-05-21T05:31:01.427Z,5.03
2023-05-21T05:33:46.972Z,4.63
2023-05-21T05:36:31.514Z,6.00
2023-05-21T05:39:15.631Z,5.22
2023-05-21T05:41:59.841Z,5.25
2023-05-21T05:44:43.716Z,6.95
2023-05-21T05:47:27.763Z,5.70
2023-05-21T05:50:13.495Z,5.30
2023-05-21T05:52:58.238Z,5.50
2023-05-21T05:55:42.382Z,5.47
2023-05-21T05:58:26.693Z,4.78
2023-05-21T06:01:15.515Z,6.72
2023-05-21T06:03:59.532Z,5.28
2023-05-21T06:06:44.814Z,5.60
2023-05-21T06:09:28.991Z,6.00
2023-05-21T06:12:16.062Z,4.63
2023-05-21T06:15:00.071Z,5.70
2023-05-21T06:17:44.590Z,6.07
2023-05-21T06:20:32.665Z,5.22
2023-05-21T06:23:18.179Z,3.95
2023-05-21T06:26:03.360Z,6.13
2023-05-21T06:28:47.616Z,5.88
2023-05-21T06:31:33.191Z,4.95
2023-05-21T06:34:17.307Z,6.30
2023-05-21T06:37:01.293Z,5.28
2023-05-21T06:39:47.131Z,5.70
2023-05-21T06:42:31.220Z,5.28
2023-05-21T06:45:41.427Z,5.53
2023-05-21T06:48:42.151Z,5.25
2023-05-21T06:51:26.578Z,4.53
2023-05-21T06:54:12.176Z,6.68
2023-05-21T06:56:59.521Z,5.90
2023-05-21T06:59:43.481Z,5.28
2023-05-21T07:02:27.525Z,4.45
2023-05-21T07:05:11.757Z,4.80
2023-05-21T07:07:55.676Z,4.50
2023-05-21T07:10:39.699Z,4.70
2023-05-21T07:13:25.729Z,4.47
2023-05-21T07:16:10.451Z,4.07
2023-05-21T07:18:56.294Z,4.15
2023-05-21T07:21:40.337Z,4.55
2023-05-21T07:24:27.583Z,4.47
2023-05-21T07:27:24.722Z,4.10
2023-05-21T07:30:13.154Z,4.00
2023-05-21T07:32:57.928Z,4.20
2023-05-21T07:35:42.138Z,4.78
2023-05-21T07:38:26.319Z,4.50
2023-05-21T07:41:10.276Z,3.72
2023-05-21T07:43:54.214Z,3.88
2023-05-21T07:46:39.813Z,4.50
2023-05-21T07:49:25.179Z,4.00
2023-05-21T07:52:09.257Z,4.00
2023-05-21T07:54:53.309Z,3.95
2023-05-21T07:57:39.059Z,4.18
2023-05-21T08:00:28.824Z,4.28
2023-05-21T08:03:17.588Z,3.63
2023-05-21T08:06:02.323Z,3.90
2023-05-21T08:08:46.259Z,4.07
2023-05-21T08:11:30.665Z,4.82
2023-05-21T08:14:14.789Z,3.85
2023-05-21T08:16:59.658Z,4.07
2023-05-21T08:19:44.961Z,3.72
2023-05-21T08:22:29.107Z,3.75
2023-05-21T08:25:13.170Z,3.70
2023-05-21T08:27:57.344Z,3.67
2023-05-21T08:30:41.388Z,4.30
2023-05-21T08:33:25.434Z,3.75
2023-05-21T08:36:10.701Z,3.92
2023-05-21T08:39:04.388Z,3.78
2023-05-21T08:41:59.740Z,4.18
2023-05-21T08:44:46.609Z,4.15
2023-05-21T08:47:33.515Z,3.53
2023-05-21T08:50:19.602Z,3.63
2023-05-21T08:53:15.831Z,4.18
2023-05-21T08:56:10.728Z,3.80
2023-05-21T08:59:05.474Z,3.85
2023-05-21T09:01:54.176Z,4.25
2023-05-21T09:04:48.388Z,4.15
2023-05-21T09:07:36.042Z,4.78
2023-05-21T09:10:49.763Z,3.60
2023-05-21T09:13:38.177Z,4.00
2023-05-21T09:16:27.127Z,4.18
2023-05-21T09:19:11.556Z,4.13
2023-05-21T09:21:55.783Z,3.83
2023-05-21T09:24:44.376Z,3.95
2023-05-21T09:27:29.730Z,4.03
2023-05-21T09:30:15.088Z,4.30
2023-05-21T09:33:01.673Z,4.40
2023-05-21T09:35:48.682Z,3.35
2023-05-21T09:38:35.357Z,4.03
2023-05-21T09:41:21.790Z,4.05
2023-05-21T09:44:07.903Z,4.63
2023-05-21T09:46:52.706Z,24.10
2023-05-21T09:49:38.719Z,12.23
2023-05-21T09:52:26.235Z,5.68
2023-05-21T09:55:13.228Z,4.38
2023-05-21T09:58:00.229Z,3.60
2023-05-21T10:00:46.152Z,3.80
2023-05-21T10:03:32.624Z,5.30
2023-05-21T10:06:18.080Z,6.50
2023-05-21T10:09:07.449Z,3.92
2023-05-21T10:11:55.744Z,3.65
2023-05-21T10:14:40.322Z,4.13
2023-05-21T10:17:26.887Z,3.65
2023-05-21T10:20:13.077Z,4.28
2023-05-21T10:22:58.290Z,3.60
2023-05-21T10:25:43.191Z,4.50
2023-05-21T10:28:27.315Z,4.78
2023-05-21T10:31:11.488Z,6.00
2023-05-21T10:33:57.144Z,3.78
2023-05-21T10:36:42.398Z,6.25
2023-05-21T10:39:26.875Z,4.05
2023-05-21T10:42:21.482Z,4.97
2023-05-21T10:45:13.832Z,5.32
2023-05-21T10:48:25.798Z,4.90
2023-05-21T10:51:25.122Z,4.60
2023-05-21T10:54:34.124Z,5.40
2023-05-21T10:57:34.998Z,5.00
2023-05-21T11:00:20.694Z,5.32
2023-05-21T11:03:05.675Z,4.97
2023-05-21T11:05:53.838Z,4.18
2023-05-21T11:08:48.689Z,4.05
2023-05-21T11:11:46.274Z,4.53
2023-05-21T11:14:36.476Z,4.57
2023-05-21T11:17:38.315Z,3.92
2023-05-21T11:20:22.992Z,4.53
2023-05-21T11:23:06.925Z,6.20
2023-05-21T11:26:02.486Z,6.60
2023-05-21T11:28:46.931Z,3.70
2023-05-21T11:31:38.194Z,3.95
2023-05-21T11:34:28.674Z,5.53
2023-05-21T11:37:29.141Z,7.78
2023-05-21T11:40:21.028Z,4.35
2023-05-21T11:43:06.662Z,4.68
2023-05-21T11:45:53.739Z,4.78
2023-05-21T11:48:39.268Z,4.63
2023-05-21T11:51:23.538Z,4.47
2023-05-21T11:54:10.172Z,4.97
2023-05-21T11:56:55.778Z,5.13
2023-05-21T11:59:41.202Z,4.57
2023-05-21T12:02:26.244Z,3.85
2023-05-21T12:05:13.107Z,3.83
2023-05-21T12:07:58.523Z,3.72
2023-05-21T12:10:43.880Z,3.90
2023-05-21T12:13:29.702Z,4.28
2023-05-21T12:16:16.185Z,4.22
2023-05-21T12:19:00.144Z,3.80
2023-05-21T12:21:44.336Z,4.07
2023-05-21T12:24:28.540Z,6.13
2023-05-21T12:27:13.553Z,4.68
2023-05-21T12:29:58.095Z,5.53
2023-05-21T12:32:45.182Z,5.97
2023-05-21T12:35:29.289Z,4.07
2023-05-21T12:38:13.243Z,4.30
2023-05-21T12:40:57.576Z,4.70
2023-05-21T12:43:41.537Z,4.28
2023-05-21T12:46:27.467Z,5.18
2023-05-21T12:49:32.085Z,4.30
2023-05-21T12:52:16.996Z,3.45
2023-05-21T12:55:02.041Z,3.20
2023-05-21T12:57:48.815Z,3.22
2023-05-21T13:00:34.607Z,3.50
2023-05-21T13:03:18.943Z,3.17
2023-05-21T13:06:04.546Z,3.83
2023-05-21T13:08:48.427Z,3.17
2023-05-21T13:11:32.352Z,3.33
2023-05-21T13:14:16.409Z,3.30
2023-05-21T13:17:00.499Z,3.25
2023-05-21T13:19:44.713Z,2.70
2023-05-21T13:22:29.975Z,2.80
2023-05-21T13:25:16.004Z,2.40
2023-05-21T13:28:04.590Z,2.67
2023-05-21T13:30:48.526Z,2.35
2023-05-21T13:33:33.284Z,2.97
2023-05-21T13:36:17.237Z,2.90
2023-05-21T13:39:02.679Z,3.00
2023-05-21T13:41:47.564Z,2.70
2023-05-21T13:44:33.417Z,3.10
2023-05-21T13:47:17.671Z,3.40
2023-05-21T13:50:01.880Z,3.35
2023-05-21T13:52:49.121Z,2.72
2023-05-21T13:55:34.451Z,3.38
2023-05-21T13:58:18.498Z,3.03
2023-05-21T14:01:02.909Z,3.00
2023-05-21T14:03:46.894Z,2.60
2023-05-21T14:06:30.945Z,2.30
2023-05-21T14:09:14.910Z,2.30
2023-05-21T14:12:00.341Z,2.97
2023-05-21T14:14:44.368Z,2.92
2023-05-21T14:17:28.312Z,2.83
2023-05-21T14:20:13.108Z,3.95
2023-05-21T14:22:57.066Z,3.33
2023-05-21T14:25:42.577Z,2.55
2023-05-21T14:28:28.002Z,2.25
2023-05-21T14:31:12.224Z,2.97
2023-05-21T14:33:56.084Z,2.50
2023-05-21T14:36:40.019Z,2.55
2023-05-21T14:39:23.976Z,2.90
2023-05-21T14:42:08.031Z,2.80
2023-05-21T14:44:53.292Z,4.63
2023-05-21T14:47:37.224Z,15.65
2023-05-21T14:50:21.871Z,2.53
2023-05-21T14:53:06.776Z,3.03
2023-05-21T14:55:50.859Z,9.00
2023-05-21T14:58:34.911Z,26.65
2023-05-21T15:01:20.371Z,4.30
2023-05-21T15:04:04.369Z,3.45
2023-05-21T15:06:48.294Z,2.40
2023-05-21T15:09:32.261Z,3.17
2023-05-21T15:12:16.255Z,2.88
2023-05-21T15:15:00.272Z,3.45
2023-05-21T15:17:45.659Z,2.72
2023-05-21T15:20:29.921Z,2.97
2023-05-21T15:23:17.232Z,3.30
2023-05-21T15:26:01.584Z,2.97
2023-05-21T15:28:45.609Z,2.63
2023-05-21T15:31:29.497Z,2.80
2023-05-21T15:34:14.847Z,3.28
2023-05-21T15:36:59.072Z,2.63
2023-05-21T15:39:42.912Z,2.90
2023-05-21T15:42:31.197Z,2.70
2023-05-21T15:45:15.115Z,4.93
2023-05-21T15:47:59.177Z,3.45
2023-05-21T15:50:44.488Z,3.58
2023-05-21T15:53:28.459Z,5.28
2023-05-21T15:56:12.578Z,6.18
2023-05-21T15:58:58.694Z,5.93
2023-05-21T16:01:42.570Z,5.10
2023-05-21T16:04:26.498Z,7.82
2023-05-21T16:07:11.697Z,5.72
2023-05-21T16:09:55.643Z,10.18
2023-05-21T16:12:39.703Z,8.52
2023-05-21T16:15:23.814Z,6.75
2023-05-21T16:18:08.431Z,7.65
2023-05-21T16:20:52.584Z,7.88
2023-05-21T16:23:38.743Z,7.97
2023-05-21T16:26:22.732Z,7.25
2023-05-21T16:29:06.600Z,8.32
2023-05-21T16:31:50.601Z,6.30
2023-05-21T16:34:35.763Z,5.10
2023-05-21T16:37:19.802Z,7.28
2023-05-21T16:40:05.893Z,6.97
2023-05-21T16:42:50.076Z,7.10
2023-05-21T16:45:40.148Z,7.40
2023-05-21T16:48:24.234Z,6.03
2023-05-21T16:51:08.242Z,8.68
2023-05-21T16:53:52.710Z,6.85
2023-05-21T16:56:38.129Z,8.80
2023-05-21T16:59:22.182Z,5.95
2023-05-21T17:02:06.639Z,7.88
2023-05-21T17:04:50.895Z,7.43
2023-05-21T17:07:34.792Z,6.45
2023-05-21T17:10:20.179Z,8.80
2023-05-21T17:13:17.690Z,7.63
2023-05-21T17:16:06.573Z,7.70
2023-05-21T17:18:50.627Z,5.45
2023-05-21T17:21:34.560Z,6.78
2023-05-21T17:24:18.622Z,4.60
2023-05-21T17:27:02.731Z,4.55
2023-05-21T17:29:48.073Z,4.43
2023-05-21T17:32:32.193Z,4.93
2023-05-21T17:35:16.146Z,9.68
2023-05-21T17:38:00.178Z,6.82
2023-05-21T17:40:44.131Z,5.32
2023-05-21T17:43:28.006Z,4.80
2023-05-21T17:46:16.814Z,5.38
2023-05-21T17:49:00.728Z,5.32
2023-05-21T17:51:45.127Z,4.35
2023-05-21T17:54:29.174Z,5.30
2023-05-21T17:57:14.266Z,5.22
2023-05-21T17:59:58.284Z,5.13
2023-05-21T18:02:43.705Z,7.28
2023-05-21T18:05:27.632Z,4.35
2023-05-21T18:08:11.791Z,5.20
2023-05-21T18:10:55.945Z,4.70
2023-05-21T18:13:40.246Z,6.22
2023-05-21T18:16:24.601Z,5.20
2023-05-21T18:19:10.637Z,5.50
2023-05-21T18:21:54.828Z,6.50
2023-05-21T18:24:40.373Z,7.80
2023-05-21T18:27:24.376Z,6.63
2023-05-21T18:30:09.836Z,7.38
2023-05-21T18:32:54.036Z,5.70
2023-05-21T18:35:39.381Z,5.78
2023-05-21T18:38:23.750Z,7.22
2023-05-21T18:41:08.087Z,8.38
2023-05-21T18:43:52.376Z,8.90
2023-05-21T18:46:36.763Z,9.38
2023-05-21T18:49:21.467Z,7.93
2023-05-21T18:52:07.814Z,7.10
2023-05-21T18:54:52.140Z,7.00
2023-05-21T18:57:36.262Z,10.95
2023-05-21T19:00:21.024Z,8.25
2023-05-21T19:03:05.768Z,10.13
2023-05-21T19:05:49.949Z,8.30
2023-05-21T19:08:35.478Z,5.35
2023-05-21T19:11:19.795Z,5.03
2023-05-21T19:14:03.844Z,6.40
2023-05-21T19:16:48.104Z,10.68
2023-05-21T19:19:32.364Z,8.93
2023-05-21T19:22:18.285Z,8.65
2023-05-21T19:25:03.917Z,9.18
2023-05-21T19:27:52.944Z,8.95
2023-05-21T19:30:37.188Z,9.55
2023-05-21T19:33:21.955Z,8.52
2023-05-21T19:36:06.474Z,8.63
2023-05-21T19:38:51.448Z,8.45
2023-05-21T19:41:37.159Z,5.55
2023-05-21T19:44:21.334Z,7.18
2023-05-21T19:47:05.772Z,5.22
2023-05-21T19:49:50.301Z,4.68
2023-05-21T19:52:35.027Z,7.95
2023-05-21T19:55:20.531Z,8.50
2023-05-21T19:58:07.118Z,8.73
2023-05-21T20:00:54.343Z,7.97
2023-05-21T20:03:39.060Z,8.48
2023-05-21T20:06:23.481Z,7.40
2023-05-21T20:09:08.196Z,5.85
2023-05-21T20:11:52.411Z,9.05
2023-05-21T20:14:38.090Z,9.20
2023-05-21T20:17:22.252Z,6.32
2023-05-21T20:20:11.331Z,7.93
2023-05-21T20:22:57.082Z,5.70
2023-05-21T20:25:41.191Z,6.47
2023-05-21T20:28:25.220Z,5.30
2023-05-21T20:31:11.313Z,4.63
2023-05-21T20:33:55.621Z,4.40
2023-05-21T20:36:41.430Z,4.53
2023-05-21T20:39:27.477Z,4.30
2023-05-21T20:42:13.960Z,4.00
2023-05-21T20:44:59.288Z,4.53
2023-05-21T20:47:44.919Z,3.78
2023-05-21T20:50:28.970Z,4.00
2023-05-21T20:53:15.956Z,4.35
2023-05-21T20:56:01.866Z,4.78
2023-05-21T20:58:46.375Z,5.50
2023-05-21T21:01:31.022Z,4.80
2023-05-21T21:04:16.326Z,7.75
2023-05-21T21:07:00.369Z,6.30
2023-05-21T21:09:44.366Z,12.35
2023-05-21T21:12:28.529Z,12.05
2023-05-21T21:15:12.594Z,9.52
2023-05-21T21:17:56.505Z,9.30
2023-05-21T21:20:42.772Z,6.82
2023-05-21T21:23:29.511Z,5.28
2023-05-21T21:26:13.381Z,4.55
2023-05-21T21:28:57.414Z,5.45
2023-05-21T21:31:43.022Z,5.43
2023-05-21T21:34:27.105Z,4.57
2023-05-21T21:37:13.617Z,4.75
2023-05-21T21:39:57.674Z,4.68
2023-05-21T21:42:43.680Z,4.95
2023-05-21T21:45:27.969Z,5.10
2023-05-21T21:48:12.014Z,5.25
2023-05-21T21:50:56.035Z,7.10
2023-05-21T21:53:41.362Z,5.57
2023-05-21T21:56:25.456Z,6.22
2023-05-21T21:59:09.423Z,5.47
2023-05-21T22:01:53.592Z,5.22
2023-05-21T22:04:37.570Z,4.85
2023-05-21T22:07:21.985Z,5.38
2023-05-21T22:10:08.522Z,5.60
2023-05-21T22:12:52.584Z,5.82
2023-05-21T22:15:36.981Z,5.32
2023-05-21T22:18:31.918Z,5.82
2023-05-21T22:21:27.104Z,6.68
2023-05-21T22:24:24.160Z,6.82
2023-05-21T22:27:16.645Z,9.77
2023-05-21T22:30:00.921Z,10.65
2023-05-21T22:32:45.041Z,10.15
2023-05-21T22:35:29.015Z,8.13
2023-05-21T22:38:12.962Z,10.45
2023-05-21T22:40:57.072Z,7.63
2023-05-21T22:43:42.337Z,8.02
2023-05-21T22:46:26.398Z,5.75
2023-05-21T22:49:10.939Z,4.88
2023-05-21T22:51:55.449Z,8.02
2023-05-21T22:54:39.499Z,9.88
2023-05-21T22:57:23.616Z,7.10
2023-05-21T23:00:10.913Z,6.70
2023-05-21T23:02:55.121Z,6.30
2023-05-21T23:05:39.248Z,4.80
2023-05-21T23:08:23.320Z,5.73
2023-05-21T23:11:07.276Z,4.93
2023-05-21T23:13:51.183Z,4.90
2023-05-21T23:16:36.652Z,5.17
2023-05-21T23:19:21.246Z,10.30
2023-05-21T23:22:05.417Z,9.37
2023-05-21T23:24:49.599Z,7.27
2023-05-21T23:27:33.457Z,7.27
2023-05-21T23:30:17.687Z,8.80
2023-05-21T23:33:03.027Z,9.48
2023-05-21T23:35:47.136Z,8.30
2023-05-21T23:38:31.157Z,7.50
2023-05-21T23:41:15.459Z,7.50
2023-05-21T23:43:59.382Z,9.27
2023-05-21T23:46:43.754Z,8.23
2023-05-21T23:49:29.067Z,6.70
2023-05-21T23:52:13.557Z,8.03
2023-05-21T23:54:57.527Z,9.10
2023-05-21T23:57:42.212Z,9.90
